createdAt,value
2023-01-02T00:00:28.265Z,12.65
2023-01-02T00:02:58.637Z,12.10
2023-01-02T00:05:28.867Z,12.60
2023-01-02T00:07:55.654Z,12.63
2023-01-02T00:10:22.438Z,13.02
2023-01-02T00:12:55.370Z,12.52
2023-01-02T00:15:23.633Z,13.43
2023-01-02T00:17:50.521Z,12.70
2023-01-02T00:20:18.866Z,13.15
2023-01-02T00:22:45.741Z,13.05
2023-01-02T00:25:23.800Z,12.82
2023-01-02T00:27:51.412Z,12.40
2023-01-02T00:30:20.612Z,12.27
2023-01-02T00:32:48.046Z,12.73
2023-01-02T00:35:15.209Z,13.10
2023-01-02T00:37:41.959Z,13.23
2023-01-02T00:40:15.348Z,12.48
2023-01-02T00:45:43.877Z,12.43
2023-01-02T00:48:46.543Z,12.82
2023-01-02T00:51:12.173Z,13.52
2023-01-02T00:53:45.323Z,13.02
2023-01-02T00:56:18.448Z,12.90
2023-01-02T00:58:45.953Z,13.00
2023-01-02T01:01:13.073Z,12.70
2023-01-02T01:03:43.394Z,12.82
2023-01-02T01:06:12.234Z,12.27
2023-01-02T01:08:45.363Z,13.15
2023-01-02T01:11:14.202Z,13.60
2023-01-02T01:13:42.539Z,13.82
2023-01-02T01:16:17.961Z,13.23
2023-01-02T01:18:54.200Z,13.10
2023-01-02T01:21:28.043Z,12.98
2023-01-02T01:24:01.706Z,13.88
2023-01-02T01:26:29.592Z,12.70
2023-01-02T01:28:58.597Z,13.18
2023-01-02T01:31:25.883Z,13.10
2023-01-02T01:33:54.186Z,12.98
2023-01-02T01:36:40.822Z,13.13
2023-01-02T01:39:13.910Z,13.18
2023-01-02T01:41:40.710Z,13.77
2023-01-02T01:45:01.894Z,13.00
2023-01-02T01:47:43.961Z,13.10
2023-01-02T01:50:32.678Z,14.18
2023-01-02T01:53:12.286Z,13.07
2023-01-02T01:56:04.185Z,12.65
2023-01-02T01:58:51.072Z,12.50
2023-01-02T02:01:26.318Z,12.80
2023-01-02T02:03:59.657Z,13.48
2023-01-02T02:06:34.357Z,12.80
2023-01-02T02:09:08.610Z,13.13
2023-01-02T02:11:39.472Z,13.38
2023-01-02T02:14:23.752Z,13.23
2023-01-02T02:17:02.171Z,13.40
2023-01-02T02:19:57.998Z,14.00
2023-01-02T02:22:46.607Z,13.75
2023-01-02T02:25:50.650Z,13.23
2023-01-02T02:28:40.910Z,13.63
2023-01-02T02:31:20.201Z,13.25
2023-01-02T02:33:56.201Z,13.40
2023-01-02T02:36:38.478Z,13.52
2023-01-02T02:39:20.408Z,13.43
2023-01-02T02:42:17.913Z,13.30
2023-01-02T02:45:43.478Z,12.68
2023-01-02T02:48:18.082Z,13.82
2023-01-02T02:50:52.467Z,14.02
2023-01-02T02:53:45.957Z,13.98
2023-01-02T02:56:15.016Z,13.70
2023-01-02T02:58:43.698Z,13.75
2023-01-02T03:01:17.481Z,13.82
2023-01-02T03:03:44.304Z,13.95
2023-01-02T03:06:17.435Z,14.18
2023-01-02T03:09:12.977Z,13.70
2023-01-02T03:11:57.388Z,14.10
2023-01-02T03:14:43.880Z,13.80
2023-01-02T03:17:50.094Z,14.00
2023-01-02T03:20:22.482Z,14.80
2023-01-02T03:22:55.841Z,14.52
2023-01-02T03:25:24.686Z,14.85
2023-01-02T03:27:52.988Z,14.20
2023-01-02T03:30:23.095Z,13.77
2023-01-02T03:33:12.653Z,13.33
2023-01-02T03:35:49.545Z,14.48
2023-01-02T03:38:27.437Z,13.85
2023-01-02T03:41:18.523Z,13.27
2023-01-02T03:43:54.771Z,14.38
2023-01-02T03:46:49.813Z,13.90
2023-01-02T03:49:19.395Z,14.40
2023-01-02T03:51:46.691Z,14.32
2023-01-02T03:54:15.410Z,14.23
2023-01-02T03:57:09.093Z,13.82
2023-01-02T03:59:40.332Z,13.85
2023-01-02T04:02:22.208Z,13.75
2023-01-02T04:05:24.753Z,14.18
2023-01-02T04:08:14.853Z,13.70
2023-01-02T04:10:45.026Z,14.20
2023-01-02T04:13:23.823Z,13.43
2023-01-02T04:15:55.372Z,14.20
2023-01-02T04:18:46.442Z,13.00
2023-01-02T04:21:18.643Z,13.95
2023-01-02T04:23:58.340Z,14.13
2023-01-02T04:26:31.588Z,14.15
2023-01-02T04:29:00.434Z,13.90
2023-01-02T04:31:37.469Z,14.52
2023-01-02T04:34:05.813Z,14.07
2023-01-02T04:36:38.580Z,14.00
2023-01-02T04:39:05.587Z,13.77
2023-01-02T04:41:33.448Z,14.77
2023-01-02T04:44:00.987Z,14.18
2023-01-02T04:46:29.298Z,13.85
2023-01-02T04:48:56.938Z,14.48
2023-01-02T04:51:24.089Z,15.10
2023-01-02T04:53:51.663Z,14.00
2023-01-02T04:56:18.980Z,14.65
2023-01-02T04:58:46.644Z,15.85
2023-01-02T05:01:16.138Z,14.20
2023-01-02T05:03:44.977Z,14.38
2023-01-02T05:06:12.056Z,15.82
2023-01-02T05:08:39.442Z,14.90
2023-01-02T05:11:12.406Z,15.10
2023-01-02T05:13:39.683Z,14.65
2023-01-02T05:16:07.301Z,14.93
2023-01-02T05:18:34.091Z,14.60
2023-01-02T05:21:28.264Z,14.82
2023-01-02T05:23:56.211Z,15.02
2023-01-02T05:26:23.317Z,14.60
2023-01-02T05:28:53.426Z,15.20
2023-01-02T05:31:20.409Z,14.45
2023-01-02T05:33:57.471Z,14.68
2023-01-02T05:36:25.202Z,14.57
2023-01-02T05:38:52.747Z,14.98
2023-01-02T05:41:20.570Z,15.25
2023-01-02T05:43:47.334Z,15.05
2023-01-02T05:46:19.464Z,15.90
2023-01-02T05:48:46.999Z,14.32
2023-01-02T05:51:21.001Z,14.73
2023-01-02T05:53:48.284Z,14.02
2023-01-02T05:56:18.793Z,14.35
2023-01-02T05:58:47.345Z,14.60
2023-01-02T06:01:23.196Z,14.95
2023-01-02T06:03:55.679Z,14.20
2023-01-02T06:06:27.221Z,14.52
2023-01-02T06:08:54.294Z,13.98
2023-01-02T06:11:21.141Z,14.75
2023-01-02T06:13:54.531Z,14.65
2023-01-02T06:16:21.984Z,14.20
2023-01-02T06:18:48.792Z,13.73
2023-01-02T06:21:17.503Z,14.57
2023-01-02T06:23:44.585Z,14.68
2023-01-02T06:26:14.981Z,16.30
2023-01-02T06:28:43.014Z,15.15
2023-01-02T06:31:12.805Z,14.93
2023-01-02T06:33:40.259Z,14.70
2023-01-02T06:36:10.159Z,14.32
2023-01-02T06:38:37.380Z,15.52
2023-01-02T06:41:05.575Z,13.93
2023-01-02T06:43:33.389Z,14.98
2023-01-02T06:46:05.790Z,15.37
2023-01-02T06:48:34.203Z,14.65
2023-01-02T06:51:05.282Z,15.00
2023-01-02T06:53:34.657Z,15.20
2023-01-02T06:56:01.477Z,15.70
2023-01-02T06:58:30.855Z,15.02
2023-01-02T07:01:21.218Z,14.90
2023-01-02T07:03:48.326Z,14.68
2023-01-02T07:06:18.674Z,14.93
2023-01-02T07:08:45.479Z,13.77
2023-01-02T07:11:17.680Z,14.00
2023-01-02T07:13:46.352Z,13.23
2023-01-02T07:16:16.234Z,14.63
2023-01-02T07:18:43.279Z,14.90
2023-01-02T07:21:12.076Z,15.47
2023-01-02T07:23:39.126Z,14.73
2023-01-02T07:26:07.118Z,15.23
2023-01-02T07:28:34.675Z,13.93
2023-01-02T07:31:20.508Z,14.60
2023-01-02T07:33:47.656Z,14.30
2023-01-02T07:36:19.390Z,13.80
2023-01-02T07:38:53.505Z,14.60
2023-01-02T07:41:22.537Z,14.05
2023-01-02T07:43:50.206Z,14.90
2023-01-02T07:46:21.765Z,14.50
2023-01-02T07:48:48.630Z,14.20
2023-01-02T07:51:18.571Z,14.40
2023-01-02T07:53:47.848Z,13.95
2023-01-02T07:56:14.616Z,14.77
2023-01-02T07:58:41.321Z,14.40
2023-01-02T08:01:16.127Z,15.47
2023-01-02T08:03:42.901Z,14.90
2023-01-02T08:06:12.260Z,14.70
2023-01-02T08:08:40.857Z,14.68
2023-01-02T08:11:27.141Z,14.23
2023-01-02T08:13:53.788Z,15.18
2023-01-02T08:16:21.886Z,14.30
2023-01-02T08:18:52.109Z,14.60
2023-01-02T08:21:18.871Z,14.40
2023-01-02T08:23:46.081Z,14.68
2023-01-02T08:26:12.862Z,13.90
2023-01-02T08:28:41.186Z,13.30
2023-01-02T08:31:13.568Z,14.05
2023-01-02T08:33:40.774Z,14.13
2023-01-02T08:36:08.163Z,13.90
2023-01-02T08:38:34.968Z,14.00
2023-01-02T08:41:01.737Z,14.27
2023-01-02T08:43:28.904Z,14.18
2023-01-02T08:45:57.147Z,14.43
2023-01-02T08:48:24.014Z,14.45
2023-01-02T08:50:53.442Z,14.23
2023-01-02T08:53:22.371Z,13.60
2023-01-02T08:55:49.067Z,14.30
2023-01-02T08:58:16.059Z,14.03
2023-01-02T09:00:43.011Z,13.70
2023-01-02T09:03:09.872Z,14.17
2023-01-02T09:05:37.243Z,14.05
2023-01-02T09:08:04.150Z,13.80
2023-01-02T09:10:31.562Z,14.60
2023-01-02T09:12:59.177Z,14.17
2023-01-02T09:15:28.125Z,13.17
2023-01-02T09:17:54.828Z,13.47
2023-01-02T09:20:21.469Z,14.20
2023-01-02T09:22:48.130Z,14.57
2023-01-02T09:25:20.354Z,14.00
2023-01-02T09:27:51.712Z,14.20
2023-01-02T09:30:18.869Z,13.60
2023-01-02T09:32:45.502Z,13.17
2023-01-02T09:35:12.188Z,13.70
2023-01-02T09:37:38.884Z,13.33
2023-01-02T09:40:06.206Z,12.57
2023-01-02T09:42:32.980Z,13.30
2023-01-02T09:45:08.481Z,12.70
2023-01-02T09:47:39.334Z,12.80
2023-01-02T09:50:12.690Z,13.23
2023-01-02T09:52:42.468Z,12.87
2023-01-02T09:55:47.194Z,13.43
2023-01-02T09:58:46.168Z,13.43
2023-01-02T10:01:26.247Z,13.10
2023-01-02T10:04:03.048Z,12.73
2023-01-02T10:06:40.917Z,14.53
2023-01-02T10:09:27.051Z,14.33
2023-01-02T10:12:05.527Z,14.20
2023-01-02T10:14:53.162Z,14.60
2023-01-02T10:17:20.641Z,14.40
2023-01-02T10:20:06.584Z,14.70
2023-01-02T10:22:42.407Z,13.60
2023-01-02T10:25:32.885Z,12.63
2023-01-02T10:28:33.390Z,13.27
2023-01-02T10:31:07.375Z,13.30
2023-01-02T10:33:58.073Z,14.20
2023-01-02T10:36:26.954Z,12.47
2023-01-02T10:39:06.243Z,14.43
2023-01-02T10:41:33.896Z,13.83
2023-01-02T10:44:21.490Z,14.10
2023-01-02T10:46:48.207Z,13.60
2023-01-02T10:49:16.061Z,13.07
2023-01-02T10:51:48.191Z,13.47
2023-01-02T10:54:15.047Z,13.20
2023-01-02T10:56:51.004Z,13.63
2023-01-02T10:59:22.705Z,12.90
2023-01-02T11:01:58.037Z,13.20
2023-01-02T11:04:27.154Z,13.00
2023-01-02T11:07:00.407Z,12.60
2023-01-02T11:09:33.442Z,12.73
2023-01-02T11:12:13.728Z,14.00
2023-01-02T11:14:41.565Z,12.83
2023-01-02T11:17:15.890Z,13.37
2023-01-02T11:19:54.713Z,12.97
2023-01-02T11:22:31.998Z,13.53
2023-01-02T11:25:04.753Z,12.73
2023-01-02T11:27:33.874Z,12.83
2023-01-02T11:30:01.832Z,12.10
2023-01-02T11:32:38.391Z,12.80
2023-01-02T11:35:05.950Z,12.13
2023-01-02T11:37:33.897Z,12.93
2023-01-02T11:40:03.954Z,12.47
2023-01-02T11:42:55.445Z,12.10
2023-01-02T11:45:22.199Z,11.70
2023-01-02T11:47:50.193Z,12.27
2023-01-02T11:50:23.893Z,11.60
2023-01-02T11:53:19.042Z,12.80
2023-01-02T11:56:10.760Z,12.20
2023-01-02T11:59:00.354Z,11.00
2023-01-02T12:01:39.833Z,10.37
2023-01-02T12:04:06.814Z,11.47
2023-01-02T12:07:00.380Z,10.80
2023-01-02T12:09:54.481Z,12.50
2023-01-02T12:12:51.865Z,11.97
2023-01-02T12:15:37.088Z,12.33
2023-01-02T12:18:25.505Z,11.50
2023-01-02T12:21:27.367Z,10.80
2023-01-02T12:24:13.826Z,11.37
2023-01-02T12:26:59.207Z,11.20
2023-01-02T12:29:50.053Z,11.70
2023-01-02T12:32:49.046Z,12.13
2023-01-02T12:35:54.430Z,11.20
2023-01-02T12:38:37.114Z,12.27
2023-01-02T12:41:16.785Z,12.07
2023-01-02T12:43:51.968Z,11.43
2023-01-02T12:46:21.792Z,11.63
2023-01-02T12:49:17.623Z,12.00
2023-01-02T12:52:16.255Z,13.37
2023-01-02T12:55:04.703Z,12.37
2023-01-02T12:57:58.711Z,12.67
2023-01-02T13:00:53.706Z,12.43
2023-01-02T13:03:39.167Z,12.40
2023-01-02T13:06:45.437Z,12.77
2023-01-02T13:09:12.211Z,12.10
2023-01-02T13:11:46.751Z,12.73
2023-01-02T13:14:19.956Z,12.13
2023-01-02T13:16:57.499Z,12.90
2023-01-02T13:19:43.611Z,11.80
2023-01-02T13:22:28.530Z,12.70
2023-01-02T13:24:57.846Z,12.10
2023-01-02T13:27:25.153Z,12.50
2023-01-02T13:29:53.471Z,13.03
2023-01-02T13:32:28.848Z,12.70
2023-01-02T13:34:58.652Z,13.57
2023-01-02T13:37:28.714Z,12.77
2023-01-02T13:39:59.489Z,13.20
2023-01-02T13:42:51.049Z,13.30
2023-01-02T13:45:31.139Z,12.50
2023-01-02T13:48:00.788Z,12.53
2023-01-02T13:50:38.713Z,12.97
2023-01-02T13:53:11.419Z,13.17
2023-01-02T13:55:38.085Z,14.07
2023-01-02T13:58:17.822Z,12.97
2023-01-02T14:00:54.745Z,13.63
2023-01-02T14:03:23.009Z,14.30
2023-01-02T14:06:00.454Z,13.57
2023-01-02T14:08:30.244Z,12.73
2023-01-02T14:11:01.046Z,13.50
2023-01-02T14:13:36.323Z,13.00
2023-01-02T14:16:23.118Z,13.30
2023-01-02T14:19:12.614Z,12.87
2023-01-02T14:21:53.540Z,12.63
2023-01-02T14:24:41.268Z,13.30
2023-01-02T14:27:19.909Z,12.07
2023-01-02T14:30:03.133Z,10.53
2023-01-02T14:32:39.743Z,8.60
2023-01-02T14:35:23.189Z,8.50
2023-01-02T14:37:53.340Z,7.40
2023-01-02T14:40:23.242Z,6.60
2023-01-02T14:43:20.871Z,6.10
2023-01-02T14:45:52.229Z,6.00
2023-01-02T14:48:30.716Z,5.90
2023-01-02T14:51:03.783Z,5.90
2023-01-02T14:53:38.249Z,5.80
2023-01-02T14:56:12.761Z,5.53
2023-01-02T14:58:42.853Z,5.97
2023-01-02T15:01:13.800Z,6.00
2023-01-02T15:04:21.568Z,6.10
2023-01-02T15:07:14.778Z,5.97
2023-01-02T15:09:47.482Z,6.20
2023-01-02T15:12:48.070Z,5.73
2023-01-02T15:15:20.594Z,5.77
2023-01-02T15:17:49.113Z,5.87
2023-01-02T15:20:21.970Z,5.77
2023-01-02T15:22:52.304Z,6.00
2023-01-02T15:25:40.281Z,6.03
2023-01-02T15:28:22.614Z,6.10
2023-01-02T15:31:11.567Z,6.40
2023-01-02T15:33:38.392Z,8.43
2023-01-02T15:36:10.349Z,7.93
2023-01-02T15:38:37.139Z,7.60
2023-01-02T15:41:04.637Z,8.90
2023-01-02T15:43:52.839Z,11.43
2023-01-02T15:46:20.412Z,8.17
2023-01-02T15:48:49.060Z,8.40
2023-01-02T15:51:17.842Z,8.67
2023-01-02T15:53:45.633Z,9.20
2023-01-02T15:56:38.481Z,10.13
2023-01-02T15:59:23.541Z,8.90
2023-01-02T16:01:50.462Z,9.23
2023-01-02T16:04:29.244Z,10.10
2023-01-02T16:06:58.599Z,9.90
2023-01-02T16:09:29.226Z,8.93
2023-01-02T16:12:01.669Z,9.40
2023-01-02T16:14:40.334Z,8.37
2023-01-02T16:17:37.690Z,8.40
2023-01-02T16:20:16.026Z,8.03
2023-01-02T16:22:58.429Z,8.50
2023-01-02T16:25:31.120Z,8.60
2023-01-02T16:28:33.985Z,8.60
2023-01-02T16:31:09.193Z,9.70
2023-01-02T16:33:36.045Z,8.97
2023-01-02T16:36:10.678Z,9.10
2023-01-02T16:38:59.320Z,8.90
2023-01-02T16:41:37.079Z,8.57
2023-01-02T16:44:12.456Z,8.70
2023-01-02T16:46:40.885Z,9.00
2023-01-02T16:49:07.878Z,9.40
2023-01-02T16:51:35.122Z,9.07
2023-01-02T16:54:01.863Z,9.37
2023-01-02T16:56:28.582Z,9.60
2023-01-02T16:58:55.255Z,10.10
2023-01-02T17:01:24.044Z,10.00
2023-01-02T17:03:50.839Z,11.60
2023-01-02T17:06:20.727Z,10.77
2023-01-02T17:08:48.027Z,9.90
2023-01-02T17:11:17.038Z,10.50
2023-01-02T17:13:43.876Z,10.73
2023-01-02T17:16:10.634Z,10.90
2023-01-02T17:18:37.360Z,10.57
2023-01-02T17:21:04.456Z,10.50
2023-01-02T17:23:31.221Z,10.57
2023-01-02T17:25:58.071Z,10.40
2023-01-02T17:28:24.908Z,10.20
2023-01-02T17:30:51.658Z,9.90
2023-01-02T17:33:18.728Z,10.30
2023-01-02T17:35:46.896Z,9.93
2023-01-02T17:38:14.240Z,9.73
2023-01-02T17:40:41.007Z,9.90
2023-01-02T17:43:07.740Z,9.80
2023-01-02T17:45:34.478Z,9.50
2023-01-02T17:48:09.338Z,10.20
2023-01-02T17:50:38.112Z,10.20
2023-01-02T17:53:04.946Z,10.40
2023-01-02T17:55:31.679Z,10.80
2023-01-02T17:58:00.804Z,10.10
2023-01-02T18:00:27.806Z,10.00
2023-01-02T18:02:54.564Z,10.53
2023-01-02T18:05:22.505Z,10.40
2023-01-02T18:07:49.155Z,10.00
2023-01-02T18:10:19.969Z,10.47
2023-01-02T18:12:47.167Z,10.20
2023-01-02T18:15:15.637Z,10.40
2023-01-02T18:17:42.977Z,10.53
2023-01-02T18:20:15.452Z,10.60
2023-01-02T18:22:49.126Z,10.03
2023-01-02T18:25:19.221Z,10.63
2023-01-02T18:27:46.701Z,11.27
2023-01-02T18:30:24.422Z,10.17
2023-01-02T18:33:00.556Z,10.07
2023-01-02T18:35:56.922Z,10.60
2023-01-02T18:38:37.879Z,10.47
2023-01-02T18:41:24.992Z,11.33
2023-01-02T18:43:57.662Z,10.47
2023-01-02T18:47:03.769Z,10.50
2023-01-02T18:49:30.092Z,10.47
2023-01-02T18:52:11.245Z,10.73
2023-01-02T18:54:42.622Z,10.40
2023-01-02T18:57:14.456Z,10.70
2023-01-02T18:59:45.827Z,12.17
2023-01-02T19:02:36.125Z,10.60
2023-01-02T19:05:18.741Z,10.63
2023-01-02T19:07:45.722Z,10.70
2023-01-02T19:10:23.538Z,10.50
2023-01-02T19:13:07.966Z,11.00
2023-01-02T19:15:43.307Z,10.60
2023-01-02T19:18:22.973Z,10.90
2023-01-02T19:20:55.896Z,10.90
2023-01-02T19:23:36.967Z,11.20
2023-01-02T19:26:37.194Z,11.43
2023-01-02T19:29:09.917Z,10.50
2023-01-02T19:31:45.635Z,10.80
2023-01-02T19:34:47.669Z,10.80
2023-01-02T19:37:33.374Z,11.30
2023-01-02T19:40:14.625Z,10.43
2023-01-02T19:42:45.314Z,10.77
2023-01-02T19:45:20.533Z,11.30
2023-01-02T19:47:48.095Z,10.90
2023-01-02T19:50:18.819Z,11.00
2023-01-02T19:52:47.667Z,11.47
2023-01-02T19:55:14.564Z,11.00
2023-01-02T19:57:41.457Z,10.57
2023-01-02T20:00:12.663Z,11.60
2023-01-02T20:02:40.693Z,10.63
2023-01-02T20:05:07.939Z,11.30
2023-01-02T20:07:34.709Z,11.07
2023-01-02T20:10:01.389Z,12.00
2023-01-02T20:12:30.859Z,11.70
2023-01-02T20:14:58.907Z,11.73
2023-01-02T20:17:28.482Z,11.53
2023-01-02T20:19:57.741Z,11.63
2023-01-02T20:22:25.386Z,10.97
2023-01-02T20:24:54.707Z,11.10
2023-01-02T20:27:24.056Z,12.00
2023-01-02T20:29:51.566Z,14.73
2023-01-02T20:32:20.206Z,12.17
2023-01-02T20:34:49.163Z,11.23
2023-01-02T20:37:17.532Z,11.30
2023-01-02T20:39:48.399Z,11.27
2023-01-02T20:42:18.204Z,11.47
2023-01-02T20:44:45.085Z,11.80
2023-01-02T20:47:12.137Z,11.50
2023-01-02T20:49:39.905Z,11.07
2023-01-02T20:52:09.779Z,11.13
2023-01-02T20:54:36.567Z,10.57
2023-01-02T20:57:03.280Z,11.07
2023-01-02T20:59:30.016Z,11.30
2023-01-02T21:01:56.824Z,11.00
2023-01-02T21:04:29.253Z,11.33
2023-01-02T21:07:02.503Z,10.93
2023-01-02T21:09:35.155Z,11.10
2023-01-02T21:12:01.920Z,10.50
2023-01-02T21:14:33.791Z,10.90
2023-01-02T21:17:04.103Z,11.07
2023-01-02T21:19:30.763Z,11.10
2023-01-02T21:21:57.488Z,11.00
2023-01-02T21:24:24.152Z,11.80
2023-01-02T21:26:50.845Z,11.00
2023-01-02T21:29:17.514Z,15.33
2023-01-02T21:31:44.279Z,11.30
2023-01-02T21:34:13.635Z,10.77
2023-01-02T21:36:40.383Z,10.50
2023-01-02T21:39:07.092Z,11.77
2023-01-02T21:41:52.322Z,11.20
2023-01-02T21:44:19.147Z,11.03
2023-01-02T21:46:45.831Z,11.10
2023-01-02T21:49:12.525Z,10.93
2023-01-02T21:51:39.172Z,11.27
2023-01-02T21:54:05.924Z,10.67
2023-01-02T21:56:33.208Z,10.93
2023-01-02T21:58:59.903Z,11.13
2023-01-02T22:01:26.740Z,10.70
2023-01-02T22:03:56.991Z,11.13
2023-01-02T22:06:24.019Z,11.50
2023-01-02T22:08:50.754Z,11.67
2023-01-02T22:11:35.964Z,10.90
2023-01-02T22:14:02.622Z,11.07
2023-01-02T22:16:29.443Z,11.40
2023-01-02T22:18:56.197Z,11.40
2023-01-02T22:21:22.890Z,11.07
2023-01-02T22:23:49.532Z,11.13
2023-01-02T22:26:16.361Z,10.70
2023-01-02T22:28:43.415Z,11.10
2023-01-02T22:31:11.435Z,11.67
2023-01-02T22:33:38.412Z,11.03
2023-01-02T22:36:05.317Z,11.43
2023-01-02T22:38:32.028Z,10.80
2023-01-02T22:40:59.047Z,10.40
2023-01-02T22:43:25.793Z,11.13
2023-01-02T22:45:53.796Z,11.17
2023-01-02T22:48:23.987Z,11.40
2023-01-02T22:50:53.780Z,11.20
2023-01-02T22:53:27.376Z,11.10
2023-01-02T22:55:54.983Z,11.20
2023-01-02T22:58:22.652Z,11.17
2023-01-02T23:00:57.693Z,11.43
2023-01-02T23:03:24.447Z,10.77
2023-01-02T23:05:51.215Z,11.43
2023-01-02T23:08:17.880Z,10.80
2023-01-02T23:10:44.594Z,10.87
2023-01-02T23:13:11.263Z,11.07
2023-01-02T23:15:59.428Z,11.10
2023-01-02T23:18:44.629Z,10.93
2023-01-02T23:21:12.051Z,10.87
2023-01-02T23:23:38.744Z,11.10
2023-01-02T23:26:06.354Z,10.83
2023-01-02T23:29:05.324Z,10.63
2023-01-02T23:31:20.659Z,11.10
2023-01-02T23:33:47.316Z,10.93
2023-01-02T23:36:13.945Z,11.20
2023-01-02T23:38:40.553Z,11.60
2023-01-02T23:41:07.276Z,10.97
2023-01-02T23:43:33.957Z,11.10
2023-01-02T23:46:01.032Z,10.93
2023-01-02T23:48:27.772Z,11.40
2023-01-02T23:51:02.067Z,11.20
2023-01-02T23:53:29.388Z,11.40
2023-01-02T23:55:56.533Z,11.60
2023-01-02T23:58:23.679Z,11.90
